createdAt,value
2024-05-09T00:02:12.903Z,100.00
2024-05-09T00:07:20.413Z,100.00
2024-05-09T00:12:25.814Z,100.00
2024-05-09T00:17:30.803Z,100.00
2024-05-09T00:22:38.280Z,100.00
2024-05-09T00:27:43.000Z,100.00
2024-05-09T00:32:47.871Z,100.00
2024-05-09T00:37:55.469Z,100.00
2024-05-09T00:43:00.598Z,100.00
2024-05-09T00:48:08.183Z,100.00
2024-05-09T00:53:19.842Z,100.00
2024-05-09T00:58:28.682Z,100.00
2024-05-09T01:03:34.135Z,100.00
2024-05-09T01:08:41.781Z,100.00
2024-05-09T01:13:46.686Z,100.00
2024-05-09T01:18:51.899Z,100.00
2024-05-09T01:23:59.261Z,100.00
2024-05-09T01:29:05.262Z,100.00
2024-05-09T01:34:10.121Z,100.00
2024-05-09T01:39:17.524Z,100.00
2024-05-09T01:44:22.413Z,100.00
2024-05-09T01:49:27.934Z,100.00
2024-05-09T01:54:35.469Z,100.00
2024-05-09T01:59:40.208Z,100.00
2024-05-09T02:04:50.368Z,100.00
2024-05-09T02:09:58.051Z,100.00
2024-05-09T02:15:03.052Z,100.00
2024-05-09T02:20:13.210Z,100.00
2024-05-09T02:25:23.748Z,100.00
2024-05-09T02:30:38.048Z,100.00
2024-05-09T02:35:45.856Z,100.00
2024-05-09T02:40:53.523Z,100.00
2024-05-09T02:45:58.826Z,100.00
2024-05-09T02:51:04.661Z,100.00
2024-05-09T02:56:12.598Z,100.00
2024-05-09T03:01:19.873Z,100.00
2024-05-09T03:06:24.501Z,100.00
2024-05-09T03:11:34.075Z,100.00
2024-05-09T03:16:40.745Z,100.00
2024-05-09T03:21:45.429Z,100.00
2024-05-09T03:26:52.715Z,100.00
2024-05-09T03:31:58.518Z,100.00
2024-05-09T03:37:03.308Z,100.00
2024-05-09T03:42:10.737Z,100.00
2024-05-09T03:47:16.068Z,100.00
2024-05-09T03:52:21.142Z,100.00
2024-05-09T03:57:28.515Z,100.00
2024-05-09T04:02:33.846Z,100.00
2024-05-09T04:07:40.487Z,100.00
2024-05-09T04:12:48.980Z,100.00
2024-05-09T04:17:53.765Z,100.00
2024-05-09T04:22:58.609Z,100.00
2024-05-09T04:28:06.912Z,100.00
2024-05-09T04:33:14.387Z,100.00
2024-05-09T04:38:19.921Z,100.00
2024-05-09T04:43:28.049Z,100.00
2024-05-09T04:48:32.783Z,100.00
2024-05-09T04:53:38.758Z,100.00
2024-05-09T04:58:46.526Z,100.00
2024-05-09T05:03:53.367Z,100.00
2024-05-09T05:08:58.712Z,100.00
2024-05-09T05:14:07.217Z,100.00
2024-05-09T05:19:15.125Z,100.00
2024-05-09T05:24:22.688Z,100.00
2024-05-09T05:29:30.948Z,100.00
2024-05-09T05:34:36.864Z,100.00
2024-05-09T05:39:42.391Z,100.00
2024-05-09T05:44:50.029Z,100.00
2024-05-09T05:49:54.643Z,100.00
2024-05-09T05:55:00.296Z,100.00
2024-05-09T06:00:15.113Z,100.00
2024-05-09T06:05:26.001Z,100.00
2024-05-09T06:10:38.301Z,100.00
2024-05-09T06:15:47.879Z,100.00
2024-05-09T06:20:52.739Z,100.00
2024-05-09T06:25:57.569Z,100.00
2024-05-09T06:31:07.026Z,100.00
2024-05-09T06:36:11.957Z,100.00
2024-05-09T06:41:17.617Z,100.00
2024-05-09T06:46:26.054Z,100.00
2024-05-09T06:51:31.094Z,100.00
2024-05-09T06:56:36.035Z,100.00
2024-05-09T07:01:44.856Z,100.00
2024-05-09T07:06:49.626Z,100.00
2024-05-09T07:11:55.236Z,100.00
2024-05-09T07:17:02.658Z,100.00
2024-05-09T07:22:07.635Z,100.00
2024-05-09T07:27:12.238Z,100.00
2024-05-09T07:32:21.789Z,100.00
2024-05-09T07:37:28.390Z,100.00
2024-05-09T07:42:33.006Z,100.00
2024-05-09T07:49:12.457Z,100.00
2024-05-09T07:53:36.744Z,100.00
2024-05-09T07:58:33.834Z,97.44
2024-05-09T08:03:41.378Z,95.08
2024-05-09T08:08:46.980Z,95.85
2024-05-09T08:13:51.836Z,86.69
2024-05-09T08:19:00.166Z,86.64
2024-05-09T08:24:05.082Z,85.30
2024-05-09T08:29:10.161Z,77.06
2024-05-09T08:34:17.960Z,80.21
2024-05-09T08:39:23.037Z,74.81
2024-05-09T08:44:28.620Z,71.27
2024-05-09T08:49:37.759Z,73.74
2024-05-09T08:54:45.180Z,67.84
2024-05-09T08:59:52.340Z,72.57
2024-05-09T09:05:08.048Z,64.72
2024-05-09T09:10:17.871Z,59.83
2024-05-09T09:15:29.931Z,62.51
2024-05-09T09:20:37.660Z,60.81
2024-05-09T09:25:43.543Z,59.70
2024-05-09T09:30:48.513Z,57.85
2024-05-09T09:35:59.340Z,60.33
2024-05-09T09:41:07.192Z,58.02
2024-05-09T09:46:14.975Z,54.97
2024-05-09T09:51:24.245Z,51.75
2024-05-09T09:56:30.424Z,48.55
2024-05-09T10:01:36.451Z,48.42
2024-05-09T10:06:48.131Z,49.52
2024-05-09T10:11:59.948Z,50.79
2024-05-09T10:17:08.867Z,48.98
2024-05-09T10:22:16.706Z,51.47
2024-05-09T10:27:28.875Z,47.64
2024-05-09T10:32:40.708Z,48.46
2024-05-09T10:37:48.496Z,47.19
2024-05-09T10:42:53.354Z,48.19
2024-05-09T10:47:59.185Z,49.47
2024-05-09T10:53:07.837Z,47.73
2024-05-09T10:58:19.923Z,48.04
2024-05-09T11:03:26.344Z,48.04
2024-05-09T11:08:34.405Z,48.11
2024-05-09T11:13:40.395Z,50.27
2024-05-09T11:18:45.331Z,49.52
2024-05-09T11:23:54.335Z,47.16
2024-05-09T11:28:59.013Z,47.86
2024-05-09T11:34:05.999Z,46.83
2024-05-09T11:39:15.057Z,45.58
2024-05-09T11:44:20.099Z,44.42
2024-05-09T11:49:26.842Z,44.35
2024-05-09T11:54:34.422Z,41.90
2024-05-09T11:59:40.552Z,42.11
2024-05-09T12:04:46.918Z,41.25
2024-05-09T12:09:55.793Z,40.71
2024-05-09T12:15:00.493Z,40.71
2024-05-09T12:20:11.316Z,40.71
2024-05-09T12:25:24.548Z,40.90
2024-05-09T12:30:36.683Z,37.18
2024-05-09T12:35:46.747Z,38.10
2024-05-09T12:40:56.125Z,38.81
2024-05-09T12:46:03.918Z,37.12
2024-05-09T12:51:08.994Z,35.66
2024-05-09T12:56:16.766Z,33.51
2024-05-09T13:01:21.813Z,35.45
2024-05-09T13:06:28.020Z,34.80
2024-05-09T13:11:36.668Z,34.28
2024-05-09T13:16:42.550Z,32.54
2024-05-09T13:21:47.410Z,33.16
2024-05-09T13:26:54.574Z,29.43
2024-05-09T13:31:59.695Z,32.14
2024-05-09T13:37:04.419Z,33.76
2024-05-09T13:42:12.456Z,36.13
2024-05-09T13:47:17.657Z,34.33
2024-05-09T13:52:22.467Z,31.26
2024-05-09T13:57:30.235Z,31.54
2024-05-09T14:02:35.143Z,31.90
2024-05-09T14:07:40.561Z,31.39
2024-05-09T14:12:48.506Z,29.00
2024-05-09T14:17:54.073Z,29.25
2024-05-09T14:22:59.506Z,27.75
2024-05-09T14:28:09.699Z,25.73
2024-05-09T14:33:16.998Z,26.61
2024-05-09T14:38:22.558Z,27.25
2024-05-09T14:43:30.113Z,23.75
2024-05-09T14:48:34.928Z,27.14
2024-05-09T14:53:39.808Z,26.14
2024-05-09T14:58:48.530Z,25.18
2024-05-09T15:03:53.781Z,29.80
2024-05-09T15:09:02.112Z,27.90
2024-05-09T15:14:09.670Z,31.90
2024-05-09T15:19:14.526Z,31.30
2024-05-09T15:24:20.527Z,33.91
2024-05-09T15:29:30.054Z,35.05
2024-05-09T15:34:35.305Z,35.80
2024-05-09T15:39:40.007Z,37.22
2024-05-09T15:44:52.779Z,35.87
2024-05-09T15:49:57.784Z,29.27
2024-05-09T15:55:02.622Z,25.54
2024-05-09T16:00:21.436Z,24.11
2024-05-09T16:05:30.411Z,22.10
2024-05-09T16:10:35.790Z,21.14
2024-05-09T16:15:44.379Z,21.28
2024-05-09T16:20:50.278Z,21.28
2024-05-09T16:25:56.208Z,20.67
2024-05-09T16:31:03.470Z,19.84
2024-05-09T16:36:09.999Z,19.72
2024-05-09T16:41:15.738Z,19.75
2024-05-09T16:46:23.430Z,20.76
2024-05-09T16:51:28.199Z,21.44
2024-05-09T16:56:34.435Z,21.67
2024-05-09T17:01:42.489Z,22.90
2024-05-09T17:06:47.756Z,26.59
2024-05-09T17:11:52.547Z,26.15
2024-05-09T17:17:00.729Z,29.41
2024-05-09T17:22:05.496Z,33.27
2024-05-09T17:27:11.089Z,36.91
2024-05-09T17:32:18.586Z,38.30
2024-05-09T17:37:23.675Z,39.15
2024-05-09T17:42:28.409Z,42.74
2024-05-09T17:47:38.407Z,45.76
2024-05-09T17:52:43.690Z,47.91
2024-05-09T17:57:49.251Z,52.06
2024-05-09T18:02:56.726Z,55.21
2024-05-09T18:08:01.417Z,55.09
2024-05-09T18:13:07.122Z,61.15
2024-05-09T18:18:16.913Z,64.83
2024-05-09T18:23:22.217Z,67.03
2024-05-09T18:28:28.235Z,70.69
2024-05-09T18:33:59.781Z,74.32
2024-05-09T18:39:04.842Z,80.07
2024-05-09T18:44:10.554Z,81.83
2024-05-09T18:49:18.332Z,85.36
2024-05-09T18:54:23.364Z,85.46
2024-05-09T18:59:28.064Z,88.15
2024-05-09T19:04:35.747Z,91.80
2024-05-09T19:09:40.873Z,96.34
2024-05-09T19:14:46.094Z,95.96
2024-05-09T19:19:54.354Z,99.62
2024-05-09T19:24:59.125Z,98.58
2024-05-09T19:30:09.415Z,100.00
2024-05-09T19:35:21.352Z,100.00
2024-05-09T19:40:31.274Z,100.00
2024-05-09T19:45:38.903Z,100.00
2024-05-09T19:50:51.568Z,100.00
2024-05-09T19:55:59.185Z,100.00
2024-05-09T20:01:04.248Z,100.00
2024-05-09T20:06:11.982Z,100.00
2024-05-09T20:11:19.113Z,100.00
2024-05-09T20:16:24.363Z,100.00
2024-05-09T20:21:32.785Z,100.00
2024-05-09T20:26:37.566Z,100.00
2024-05-09T20:31:43.898Z,100.00
2024-05-09T20:36:51.230Z,100.00
2024-05-09T20:41:57.881Z,100.00
2024-05-09T20:47:02.599Z,100.00
2024-05-09T20:52:11.148Z,100.00
2024-05-09T20:57:15.883Z,100.00
2024-05-09T21:02:21.687Z,100.00
2024-05-09T21:07:29.156Z,100.00
2024-05-09T21:12:33.722Z,100.00
2024-05-09T21:17:39.247Z,100.00
2024-05-09T21:22:46.972Z,100.00
2024-05-09T21:27:51.984Z,100.00
2024-05-09T21:32:57.144Z,100.00
2024-05-09T21:38:05.807Z,100.00
2024-05-09T21:43:11.875Z,100.00
2024-05-09T21:48:17.300Z,100.00
2024-05-09T21:53:24.727Z,100.00
2024-05-09T21:58:30.314Z,100.00
2024-05-09T22:03:35.230Z,100.00
2024-05-09T22:08:42.688Z,100.00
2024-05-09T22:13:48.028Z,100.00
2024-05-09T22:18:53.230Z,100.00
2024-05-09T22:24:00.646Z,100.00
2024-05-09T22:29:05.098Z,100.00
2024-05-09T22:34:09.952Z,100.00
2024-05-09T22:39:17.869Z,100.00
2024-05-09T22:44:23.190Z,100.00
2024-05-09T22:49:27.874Z,100.00
2024-05-09T22:54:35.744Z,100.00
2024-05-09T22:59:41.019Z,100.00
2024-05-09T23:04:46.398Z,100.00
2024-05-09T23:09:54.043Z,100.00
2024-05-09T23:14:59.401Z,100.00
2024-05-09T23:20:06.855Z,100.00
2024-05-09T23:25:15.479Z,100.00
2024-05-09T23:30:29.249Z,100.00
2024-05-09T23:35:41.602Z,100.00
2024-05-09T23:40:50.159Z,100.00
2024-05-09T23:45:55.687Z,100.00
2024-05-09T23:51:00.443Z,100.00
2024-05-09T23:56:08.531Z,100.00
